sensor_id;sensor_type;location;lat;lon;timestamp;P1;durP1;ratioP1;P2;durP2;ratioP2
21315;SDS011;10817;55.820;13.030;2023-12-04T00:00:05;12.68;;;7.65;;
21315;SDS011;10817;55.820;13.030;2023-12-04T00:02:39;10.98;;;7.65;;
21315;SDS011;10817;55.820;13.030;2023-12-04T00:05:06;10.50;;;7.32;;
21315;SDS011;10817;55.820;13.030;2023-12-04T00:07:33;12.43;;;8.82;;
21315;SDS011;10817;55.820;13.030;2023-12-04T00:10:00;13.13;;;8.02;;
21315;SDS011;10817;55.820;13.030;2023-12-04T00:12:28;14.93;;;7.88;;
21315;SDS011;10817;55.820;13.030;2023-12-04T00:14:58;15.65;;;7.70;;
21315;SDS011;10817;55.820;13.030;2023-12-04T00:17:25;13.15;;;8.27;;
21315;SDS011;10817;55.820;13.030;2023-12-04T00:19:56;13.50;;;8.60;;
21315;SDS011;10817;55.820;13.030;2023-12-04T00:22:24;11.65;;;7.25;;
21315;SDS011;10817;55.820;13.030;2023-12-04T00:24:51;14.13;;;7.97;;
21315;SDS011;10817;55.820;13.030;2023-12-04T00:27:21;11.77;;;8.05;;
21315;SDS011;10817;55.820;13.030;2023-12-04T00:29:51;15.32;;;8.50;;
21315;SDS011;10817;55.820;13.030;2023-12-04T00:32:18;12.82;;;8.15;;
21315;SDS011;10817;55.820;13.030;2023-12-04T00:34:47;12.25;;;7.55;;
21315;SDS011;10817;55.820;13.030;2023-12-04T00:37:15;12.95;;;8.25;;
21315;SDS011;10817;55.820;13.030;2023-12-04T00:39:42;13.32;;;8.25;;
21315;SDS011;10817;55.820;13.030;2023-12-04T00:42:15;12.68;;;8.02;;
21315;SDS011;10817;55.820;13.030;2023-12-04T00:44:51;12.85;;;7.93;;
21315;SDS011;10817;55.820;13.030;2023-12-04T00:47:21;15.73;;;8.23;;
21315;SDS011;10817;55.820;13.030;2023-12-04T00:49:48;15.45;;;8.75;;
21315;SDS011;10817;55.820;13.030;2023-12-04T00:52:30;14.10;;;8.23;;
21315;SDS011;10817;55.820;13.030;2023-12-04T00:54:57;11.40;;;8.07;;
21315;SDS011;10817;55.820;13.030;2023-12-04T00:57:24;11.27;;;7.45;;
21315;SDS011;10817;55.820;13.030;2023-12-04T00:59:51;13.40;;;7.72;;
21315;SDS011;10817;55.820;13.030;2023-12-04T01:02:18;11.50;;;7.97;;
21315;SDS011;10817;55.820;13.030;2023-12-04T01:04:48;10.90;;;7.53;;
21315;SDS011;10817;55.820;13.030;2023-12-04T01:07:16;11.55;;;7.80;;
21315;SDS011;10817;55.820;13.030;2023-12-04T01:09:56;13.77;;;8.00;;
21315;SDS011;10817;55.820;13.030;2023-12-04T01:17:23;14.27;;;8.45;;
21315;SDS011;10817;55.820;13.030;2023-12-04T01:20:15;11.95;;;7.40;;
21315;SDS011;10817;55.820;13.030;2023-12-04T01:22:43;11.55;;;7.40;;
21315;SDS011;10817;55.820;13.030;2023-12-04T01:25:11;14.43;;;8.70;;
21315;SDS011;10817;55.820;13.030;2023-12-04T01:27:38;11.82;;;8.18;;
21315;SDS011;10817;55.820;13.030;2023-12-04T01:30:06;12.38;;;7.68;;
21315;SDS011;10817;55.820;13.030;2023-12-04T01:32:34;12.00;;;7.65;;
21315;SDS011;10817;55.820;13.030;2023-12-04T01:35:01;10.90;;;7.13;;
21315;SDS011;10817;55.820;13.030;2023-12-04T01:37:28;8.95;;;6.45;;
21315;SDS011;10817;55.820;13.030;2023-12-04T01:39:55;11.30;;;7.47;;
21315;SDS011;10817;55.820;13.030;2023-12-04T01:42:23;11.75;;;7.47;;
21315;SDS011;10817;55.820;13.030;2023-12-04T01:44:50;10.95;;;7.30;;
21315;SDS011;10817;55.820;13.030;2023-12-04T01:47:17;9.70;;;7.07;;
21315;SDS011;10817;55.820;13.030;2023-12-04T01:49:44;9.80;;;7.00;;
21315;SDS011;10817;55.820;13.030;2023-12-04T01:52:11;11.15;;;7.05;;
21315;SDS011;10817;55.820;13.030;2023-12-04T01:54:39;9.68;;;6.88;;
21315;SDS011;10817;55.820;13.030;2023-12-04T01:57:06;12.77;;;7.20;;
21315;SDS011;10817;55.820;13.030;2023-12-04T01:59:34;11.63;;;7.30;;
21315;SDS011;10817;55.820;13.030;2023-12-04T02:02:02;12.73;;;7.63;;
21315;SDS011;10817;55.820;13.030;2023-12-04T02:04:30;10.63;;;7.07;;
21315;SDS011;10817;55.820;13.030;2023-12-04T02:06:57;11.55;;;7.95;;
21315;SDS011;10817;55.820;13.030;2023-12-04T02:09:24;12.02;;;7.10;;
21315;SDS011;10817;55.820;13.030;2023-12-04T02:11:52;12.45;;;7.57;;
21315;SDS011;10817;55.820;13.030;2023-12-04T02:14:19;10.98;;;6.90;;
21315;SDS011;10817;55.820;13.030;2023-12-04T02:16:47;12.98;;;8.27;;
21315;SDS011;10817;55.820;13.030;2023-12-04T02:19:15;15.18;;;8.30;;
21315;SDS011;10817;55.820;13.030;2023-12-04T02:21:41;12.38;;;8.48;;
21315;SDS011;10817;55.820;13.030;2023-12-04T02:24:10;13.80;;;8.20;;
21315;SDS011;10817;55.820;13.030;2023-12-04T02:26:39;13.57;;;8.00;;
21315;SDS011;10817;55.820;13.030;2023-12-04T02:29:11;13.40;;;8.02;;
21315;SDS011;10817;55.820;13.030;2023-12-04T02:31:43;14.05;;;7.72;;
21315;SDS011;10817;55.820;13.030;2023-12-04T02:34:11;14.60;;;7.68;;
21315;SDS011;10817;55.820;13.030;2023-12-04T02:36:41;13.02;;;8.20;;
21315;SDS011;10817;55.820;13.030;2023-12-04T02:39:11;13.80;;;8.10;;
21315;SDS011;10817;55.820;13.030;2023-12-04T02:41:38;13.68;;;8.32;;
21315;SDS011;10817;55.820;13.030;2023-12-04T02:44:05;11.82;;;7.40;;
21315;SDS011;10817;55.820;13.030;2023-12-04T02:46:32;12.32;;;7.82;;
21315;SDS011;10817;55.820;13.030;2023-12-04T02:48:58;13.52;;;7.57;;
21315;SDS011;10817;55.820;13.030;2023-12-04T02:51:25;12.82;;;7.60;;
21315;SDS011;10817;55.820;13.030;2023-12-04T02:53:52;12.45;;;8.07;;
21315;SDS011;10817;55.820;13.030;2023-12-04T02:56:21;12.52;;;8.27;;
21315;SDS011;10817;55.820;13.030;2023-12-04T02:58:47;11.77;;;7.22;;
21315;SDS011;10817;55.820;13.030;2023-12-04T03:01:15;11.57;;;7.97;;
21315;SDS011;10817;55.820;13.030;2023-12-04T03:03:42;9.15;;;6.80;;
21315;SDS011;10817;55.820;13.030;2023-12-04T03:06:09;11.80;;;8.02;;
21315;SDS011;10817;55.820;13.030;2023-12-04T03:08:35;11.35;;;7.32;;
21315;SDS011;10817;55.820;13.030;2023-12-04T03:11:02;11.45;;;7.90;;
21315;SDS011;10817;55.820;13.030;2023-12-04T03:13:31;12.10;;;7.95;;
21315;SDS011;10817;55.820;13.030;2023-12-04T03:15:58;15.50;;;7.82;;
21315;SDS011;10817;55.820;13.030;2023-12-04T03:18:25;14.55;;;7.65;;
21315;SDS011;10817;55.820;13.030;2023-12-04T03:20:54;10.93;;;6.95;;
21315;SDS011;10817;55.820;13.030;2023-12-04T03:23:20;12.35;;;7.57;;
21315;SDS011;10817;55.820;13.030;2023-12-04T03:25:47;14.95;;;8.10;;
21315;SDS011;10817;55.820;13.030;2023-12-04T03:28:14;12.02;;;7.97;;
21315;SDS011;10817;55.820;13.030;2023-12-04T03:30:43;11.38;;;7.85;;
21315;SDS011;10817;55.820;13.030;2023-12-04T03:33:10;13.63;;;8.75;;
21315;SDS011;10817;55.820;13.030;2023-12-04T03:35:37;12.70;;;8.10;;
21315;SDS011;10817;55.820;13.030;2023-12-04T03:38:04;11.38;;;7.80;;
21315;SDS011;10817;55.820;13.030;2023-12-04T03:40:31;13.43;;;8.10;;
21315;SDS011;10817;55.820;13.030;2023-12-04T03:42:58;11.93;;;7.97;;
21315;SDS011;10817;55.820;13.030;2023-12-04T03:45:25;11.52;;;7.75;;
21315;SDS011;10817;55.820;13.030;2023-12-04T03:47:53;13.40;;;8.30;;
21315;SDS011;10817;55.820;13.030;2023-12-04T03:50:20;12.32;;;8.00;;
21315;SDS011;10817;55.820;13.030;2023-12-04T03:52:47;13.65;;;8.18;;
21315;SDS011;10817;55.820;13.030;2023-12-04T03:55:14;12.25;;;7.65;;
21315;SDS011;10817;55.820;13.030;2023-12-04T03:57:41;11.50;;;7.22;;
21315;SDS011;10817;55.820;13.030;2023-12-04T04:00:09;12.77;;;7.65;;
21315;SDS011;10817;55.820;13.030;2023-12-04T04:02:38;12.15;;;7.57;;
21315;SDS011;10817;55.820;13.030;2023-12-04T04:05:07;12.77;;;7.93;;
21315;SDS011;10817;55.820;13.030;2023-12-04T04:07:34;10.43;;;6.70;;
21315;SDS011;10817;55.820;13.030;2023-12-04T04:10:01;12.38;;;7.60;;
21315;SDS011;10817;55.820;13.030;2023-12-04T04:12:29;12.38;;;7.50;;
21315;SDS011;10817;55.820;13.030;2023-12-04T04:14:56;11.85;;;7.60;;
21315;SDS011;10817;55.820;13.030;2023-12-04T04:17:23;11.32;;;7.40;;
21315;SDS011;10817;55.820;13.030;2023-12-04T04:19:51;12.23;;;7.85;;
21315;SDS011;10817;55.820;13.030;2023-12-04T04:22:19;11.70;;;7.50;;
21315;SDS011;10817;55.820;13.030;2023-12-04T04:24:46;10.65;;;6.65;;
21315;SDS011;10817;55.820;13.030;2023-12-04T04:27:13;10.32;;;6.93;;
21315;SDS011;10817;55.820;13.030;2023-12-04T04:29:41;10.50;;;7.00;;
21315;SDS011;10817;55.820;13.030;2023-12-04T04:32:08;13.40;;;7.80;;
21315;SDS011;10817;55.820;13.030;2023-12-04T04:34:35;16.08;;;8.35;;
21315;SDS011;10817;55.820;13.030;2023-12-04T04:37:01;13.18;;;7.47;;
21315;SDS011;10817;55.820;13.030;2023-12-04T04:39:30;23.17;;;7.97;;
21315;SDS011;10817;55.820;13.030;2023-12-04T04:41:56;13.93;;;7.93;;
21315;SDS011;10817;55.820;13.030;2023-12-04T04:44:23;12.98;;;8.40;;
21315;SDS011;10817;55.820;13.030;2023-12-04T04:46:50;10.43;;;7.25;;
21315;SDS011;10817;55.820;13.030;2023-12-04T04:49:17;12.60;;;7.20;;
21315;SDS011;10817;55.820;13.030;2023-12-04T04:51:44;12.70;;;6.85;;
21315;SDS011;10817;55.820;13.030;2023-12-04T04:54:10;12.38;;;7.55;;
21315;SDS011;10817;55.820;13.030;2023-12-04T04:56:39;11.68;;;7.80;;
21315;SDS011;10817;55.820;13.030;2023-12-04T04:59:05;17.83;;;7.43;;
21315;SDS011;10817;55.820;13.030;2023-12-04T05:01:32;10.77;;;7.63;;
21315;SDS011;10817;55.820;13.030;2023-12-04T05:03:59;14.60;;;8.13;;
21315;SDS011;10817;55.820;13.030;2023-12-04T05:06:27;10.77;;;7.43;;
21315;SDS011;10817;55.820;13.030;2023-12-04T05:08:54;14.77;;;8.23;;
21315;SDS011;10817;55.820;13.030;2023-12-04T05:11:21;11.35;;;7.47;;
21315;SDS011;10817;55.820;13.030;2023-12-04T05:13:50;10.98;;;7.20;;
21315;SDS011;10817;55.820;13.030;2023-12-04T05:16:17;12.43;;;7.05;;
21315;SDS011;10817;55.820;13.030;2023-12-04T05:18:44;12.38;;;7.70;;
21315;SDS011;10817;55.820;13.030;2023-12-04T05:21:11;10.32;;;7.38;;
21315;SDS011;10817;55.820;13.030;2023-12-04T05:23:38;11.90;;;7.18;;
21315;SDS011;10817;55.820;13.030;2023-12-04T05:26:05;9.43;;;6.70;;
21315;SDS011;10817;55.820;13.030;2023-12-04T05:28:33;12.90;;;7.82;;
21315;SDS011;10817;55.820;13.030;2023-12-04T05:31:01;17.13;;;7.57;;
21315;SDS011;10817;55.820;13.030;2023-12-04T05:33:28;11.82;;;7.57;;
21315;SDS011;10817;55.820;13.030;2023-12-04T05:35:55;11.85;;;7.85;;
21315;SDS011;10817;55.820;13.030;2023-12-04T05:38:22;13.55;;;7.78;;
21315;SDS011;10817;55.820;13.030;2023-12-04T05:40:49;12.02;;;7.22;;
21315;SDS011;10817;55.820;13.030;2023-12-04T05:43:16;14.50;;;7.78;;
21315;SDS011;10817;55.820;13.030;2023-12-04T05:45:44;9.27;;;6.97;;
21315;SDS011;10817;55.820;13.030;2023-12-04T05:48:11;13.27;;;7.88;;
21315;SDS011;10817;55.820;13.030;2023-12-04T05:50:38;14.48;;;8.00;;
21315;SDS011;10817;55.820;13.030;2023-12-04T05:53:05;13.82;;;8.05;;
21315;SDS011;10817;55.820;13.030;2023-12-04T05:55:33;13.18;;;7.38;;
21315;SDS011;10817;55.820;13.030;2023-12-04T05:58:00;10.48;;;6.75;;
21315;SDS011;10817;55.820;13.030;2023-12-04T06:00:27;11.00;;;7.20;;
21315;SDS011;10817;55.820;13.030;2023-12-04T06:02:54;11.13;;;7.18;;
21315;SDS011;10817;55.820;13.030;2023-12-04T06:05:22;12.07;;;7.30;;
21315;SDS011;10817;55.820;13.030;2023-12-04T06:07:49;12.65;;;7.55;;
21315;SDS011;10817;55.820;13.030;2023-12-04T06:10:16;13.02;;;8.48;;
21315;SDS011;10817;55.820;13.030;2023-12-04T06:12:43;14.60;;;9.02;;
21315;SDS011;10817;55.820;13.030;2023-12-04T06:15:10;13.77;;;8.50;;
21315;SDS011;10817;55.820;13.030;2023-12-04T06:17:36;12.88;;;7.88;;
21315;SDS011;10817;55.820;13.030;2023-12-04T06:20:03;11.98;;;7.80;;
21315;SDS011;10817;55.820;13.030;2023-12-04T06:22:33;10.82;;;7.55;;
21315;SDS011;10817;55.820;13.030;2023-12-04T06:25:00;13.68;;;7.70;;
21315;SDS011;10817;55.820;13.030;2023-12-04T06:27:28;11.95;;;8.15;;
21315;SDS011;10817;55.820;13.030;2023-12-04T06:29:57;11.80;;;7.88;;
21315;SDS011;10817;55.820;13.030;2023-12-04T06:32:27;14.45;;;7.50;;
21315;SDS011;10817;55.820;13.030;2023-12-04T06:34:54;13.75;;;8.40;;
21315;SDS011;10817;55.820;13.030;2023-12-04T06:37:22;13.38;;;7.53;;
21315;SDS011;10817;55.820;13.030;2023-12-04T06:39:53;11.00;;;7.10;;
21315;SDS011;10817;55.820;13.030;2023-12-04T06:42:21;13.75;;;8.25;;
21315;SDS011;10817;55.820;13.030;2023-12-04T06:44:51;13.25;;;7.60;;
21315;SDS011;10817;55.820;13.030;2023-12-04T06:47:19;12.85;;;7.80;;
21315;SDS011;10817;55.820;13.030;2023-12-04T06:49:49;13.95;;;8.05;;
21315;SDS011;10817;55.820;13.030;2023-12-04T06:52:16;12.70;;;7.38;;
21315;SDS011;10817;55.820;13.030;2023-12-04T06:54:43;14.10;;;8.23;;
21315;SDS011;10817;55.820;13.030;2023-12-04T06:57:11;11.88;;;7.57;;
21315;SDS011;10817;55.820;13.030;2023-12-04T06:59:39;12.68;;;7.80;;
21315;SDS011;10817;55.820;13.030;2023-12-04T07:02:06;12.98;;;8.27;;
21315;SDS011;10817;55.820;13.030;2023-12-04T07:04:33;14.23;;;7.93;;
21315;SDS011;10817;55.820;13.030;2023-12-04T07:07:00;12.07;;;8.88;;
21315;SDS011;10817;55.820;13.030;2023-12-04T07:09:30;13.48;;;8.32;;
21315;SDS011;10817;55.820;13.030;2023-12-04T07:11:57;13.95;;;8.63;;
21315;SDS011;10817;55.820;13.030;2023-12-04T07:14:25;16.05;;;9.02;;
21315;SDS011;10817;55.820;13.030;2023-12-04T07:16:52;11.52;;;7.93;;
21315;SDS011;10817;55.820;13.030;2023-12-04T07:19:19;13.40;;;8.85;;
21315;SDS011;10817;55.820;13.030;2023-12-04T07:21:46;17.10;;;8.32;;
21315;SDS011;10817;55.820;13.030;2023-12-04T07:24:14;12.82;;;7.75;;
21315;SDS011;10817;55.820;13.030;2023-12-04T07:26:41;14.02;;;7.45;;
21315;SDS011;10817;55.820;13.030;2023-12-04T07:29:11;13.13;;;8.15;;
21315;SDS011;10817;55.820;13.030;2023-12-04T07:31:40;18.52;;;8.73;;
21315;SDS011;10817;55.820;13.030;2023-12-04T07:34:08;13.13;;;7.75;;
21315;SDS011;10817;55.820;13.030;2023-12-04T07:36:40;13.95;;;8.48;;
21315;SDS011;10817;55.820;13.030;2023-12-04T07:39:12;15.65;;;7.70;;
21315;SDS011;10817;55.820;13.030;2023-12-04T07:41:40;15.20;;;7.90;;
21315;SDS011;10817;55.820;13.030;2023-12-04T07:44:07;14.35;;;7.95;;
21315;SDS011;10817;55.820;13.030;2023-12-04T07:46:34;13.68;;;8.50;;
21315;SDS011;10817;55.820;13.030;2023-12-04T07:49:02;14.98;;;8.32;;
21315;SDS011;10817;55.820;13.030;2023-12-04T07:51:29;13.45;;;7.85;;
21315;SDS011;10817;55.820;13.030;2023-12-04T07:53:56;14.50;;;8.43;;
21315;SDS011;10817;55.820;13.030;2023-12-04T07:56:23;14.85;;;7.50;;
21315;SDS011;10817;55.820;13.030;2023-12-04T07:58:50;13.05;;;8.48;;
21315;SDS011;10817;55.820;13.030;2023-12-04T08:01:17;14.32;;;8.05;;
21315;SDS011;10817;55.820;13.030;2023-12-04T08:03:44;15.35;;;8.35;;
21315;SDS011;10817;55.820;13.030;2023-12-04T08:06:12;15.52;;;7.95;;
21315;SDS011;10817;55.820;13.030;2023-12-04T08:08:40;15.00;;;8.82;;
21315;SDS011;10817;55.820;13.030;2023-12-04T08:11:09;14.68;;;8.60;;
21315;SDS011;10817;55.820;13.030;2023-12-04T08:13:37;14.07;;;9.30;;
21315;SDS011;10817;55.820;13.030;2023-12-04T08:16:05;16.35;;;8.75;;
21315;SDS011;10817;55.820;13.030;2023-12-04T08:18:39;12.38;;;8.20;;
21315;SDS011;10817;55.820;13.030;2023-12-04T08:21:06;16.92;;;8.55;;
21315;SDS011;10817;55.820;13.030;2023-12-04T08:23:34;14.75;;;8.27;;
21315;SDS011;10817;55.820;13.030;2023-12-04T08:26:01;16.73;;;8.27;;
21315;SDS011;10817;55.820;13.030;2023-12-04T08:28:28;16.23;;;8.73;;
21315;SDS011;10817;55.820;13.030;2023-12-04T08:30:56;15.63;;;8.68;;
21315;SDS011;10817;55.820;13.030;2023-12-04T08:33:23;13.52;;;9.07;;
21315;SDS011;10817;55.820;13.030;2023-12-04T08:35:49;11.55;;;8.15;;
21315;SDS011;10817;55.820;13.030;2023-12-04T08:38:17;18.38;;;9.38;;
21315;SDS011;10817;55.820;13.030;2023-12-04T08:40:45;16.02;;;9.05;;
21315;SDS011;10817;55.820;13.030;2023-12-04T08:43:12;15.00;;;8.73;;
21315;SDS011;10817;55.820;13.030;2023-12-04T08:45:39;16.75;;;8.95;;
21315;SDS011;10817;55.820;13.030;2023-12-04T08:48:05;13.95;;;8.35;;
21315;SDS011;10817;55.820;13.030;2023-12-04T08:50:32;15.25;;;9.73;;
21315;SDS011;10817;55.820;13.030;2023-12-04T08:52:59;18.52;;;9.43;;
21315;SDS011;10817;55.820;13.030;2023-12-04T08:55:26;17.58;;;10.40;;
21315;SDS011;10817;55.820;13.030;2023-12-04T08:57:54;17.40;;;9.52;;
21315;SDS011;10817;55.820;13.030;2023-12-04T09:00:21;21.50;;;9.68;;
21315;SDS011;10817;55.820;13.030;2023-12-04T09:02:48;19.88;;;10.63;;
21315;SDS011;10817;55.820;13.030;2023-12-04T09:05:15;25.15;;;10.77;;
21315;SDS011;10817;55.820;13.030;2023-12-04T09:07:42;24.42;;;11.00;;
21315;SDS011;10817;55.820;13.030;2023-12-04T09:10:09;20.75;;;10.60;;
21315;SDS011;10817;55.820;13.030;2023-12-04T09:12:35;22.33;;;11.25;;
21315;SDS011;10817;55.820;13.030;2023-12-04T09:15:04;18.35;;;10.07;;
21315;SDS011;10817;55.820;13.030;2023-12-04T09:17:32;28.13;;;11.23;;
21315;SDS011;10817;55.820;13.030;2023-12-04T09:19:59;20.27;;;11.00;;
21315;SDS011;10817;55.820;13.030;2023-12-04T09:22:25;21.55;;;10.68;;
21315;SDS011;10817;55.820;13.030;2023-12-04T09:24:53;22.05;;;10.70;;
21315;SDS011;10817;55.820;13.030;2023-12-04T09:27:20;17.15;;;10.43;;
21315;SDS011;10817;55.820;13.030;2023-12-04T09:29:46;23.50;;;12.20;;
21315;SDS011;10817;55.820;13.030;2023-12-04T09:32:15;29.45;;;13.38;;
21315;SDS011;10817;55.820;13.030;2023-12-04T09:34:41;26.48;;;12.35;;
21315;SDS011;10817;55.820;13.030;2023-12-04T09:37:08;23.65;;;11.15;;
21315;SDS011;10817;55.820;13.030;2023-12-04T09:39:35;20.90;;;11.50;;
21315;SDS011;10817;55.820;13.030;2023-12-04T09:42:02;18.60;;;10.98;;
21315;SDS011;10817;55.820;13.030;2023-12-04T09:44:29;23.30;;;12.13;;
21315;SDS011;10817;55.820;13.030;2023-12-04T09:46:57;21.40;;;10.43;;
21315;SDS011;10817;55.820;13.030;2023-12-04T09:49:26;21.90;;;11.30;;
21315;SDS011;10817;55.820;13.030;2023-12-04T09:51:56;20.00;;;10.98;;
21315;SDS011;10817;55.820;13.030;2023-12-04T09:54:24;21.40;;;10.20;;
21315;SDS011;10817;55.820;13.030;2023-12-04T09:56:51;20.52;;;10.98;;
21315;SDS011;10817;55.820;13.030;2023-12-04T09:59:18;20.27;;;10.50;;
21315;SDS011;10817;55.820;13.030;2023-12-04T10:01:49;21.42;;;10.48;;
21315;SDS011;10817;55.820;13.030;2023-12-04T10:04:17;19.40;;;10.68;;
21315;SDS011;10817;55.820;13.030;2023-12-04T10:06:45;20.98;;;11.15;;
21315;SDS011;10817;55.820;13.030;2023-12-04T10:09:12;17.33;;;9.77;;
21315;SDS011;10817;55.820;13.030;2023-12-04T10:11:39;20.92;;;10.98;;
21315;SDS011;10817;55.820;13.030;2023-12-04T10:14:13;21.88;;;10.55;;
21315;SDS011;10817;55.820;13.030;2023-12-04T10:16:41;24.73;;;10.88;;
21315;SDS011;10817;55.820;13.030;2023-12-04T10:19:14;25.13;;;11.23;;
21315;SDS011;10817;55.820;13.030;2023-12-04T10:21:42;19.02;;;10.85;;
21315;SDS011;10817;55.820;13.030;2023-12-04T10:24:11;20.27;;;11.25;;
21315;SDS011;10817;55.820;13.030;2023-12-04T10:26:38;18.88;;;10.48;;
21315;SDS011;10817;55.820;13.030;2023-12-04T10:29:16;20.15;;;11.23;;
21315;SDS011;10817;55.820;13.030;2023-12-04T10:31:43;17.98;;;10.55;;
21315;SDS011;10817;55.820;13.030;2023-12-04T10:34:10;17.80;;;10.25;;
21315;SDS011;10817;55.820;13.030;2023-12-04T10:36:36;19.13;;;10.60;;
21315;SDS011;10817;55.820;13.030;2023-12-04T10:39:04;21.75;;;11.35;;
21315;SDS011;10817;55.820;13.030;2023-12-04T10:41:32;24.73;;;11.98;;
21315;SDS011;10817;55.820;13.030;2023-12-04T10:43:59;21.77;;;11.10;;
21315;SDS011;10817;55.820;13.030;2023-12-04T10:46:26;19.70;;;10.70;;
21315;SDS011;10817;55.820;13.030;2023-12-04T10:48:55;19.55;;;10.23;;
21315;SDS011;10817;55.820;13.030;2023-12-04T10:51:24;18.98;;;10.75;;
21315;SDS011;10817;55.820;13.030;2023-12-04T10:53:53;19.45;;;10.52;;
21315;SDS011;10817;55.820;13.030;2023-12-04T10:56:25;16.02;;;9.57;;
21315;SDS011;10817;55.820;13.030;2023-12-04T10:59:01;16.38;;;9.57;;
21315;SDS011;10817;55.820;13.030;2023-12-04T11:01:29;18.63;;;9.40;;
21315;SDS011;10817;55.820;13.030;2023-12-04T11:03:58;15.35;;;9.57;;
21315;SDS011;10817;55.820;13.030;2023-12-04T11:06:32;18.75;;;10.18;;
21315;SDS011;10817;55.820;13.030;2023-12-04T11:09:05;19.13;;;11.60;;
21315;SDS011;10817;55.820;13.030;2023-12-04T11:11:34;22.27;;;11.00;;
21315;SDS011;10817;55.820;13.030;2023-12-04T11:14:06;21.90;;;11.18;;
21315;SDS011;10817;55.820;13.030;2023-12-04T11:16:37;18.75;;;11.25;;
21315;SDS011;10817;55.820;13.030;2023-12-04T11:19:10;19.98;;;10.75;;
21315;SDS011;10817;55.820;13.030;2023-12-04T11:21:42;22.75;;;10.65;;
21315;SDS011;10817;55.820;13.030;2023-12-04T11:24:11;19.55;;;10.93;;
21315;SDS011;10817;55.820;13.030;2023-12-04T11:26:38;24.85;;;11.05;;
21315;SDS011;10817;55.820;13.030;2023-12-04T11:29:07;20.10;;;11.73;;
21315;SDS011;10817;55.820;13.030;2023-12-04T11:31:35;20.40;;;10.70;;
21315;SDS011;10817;55.820;13.030;2023-12-04T11:34:03;19.08;;;10.32;;
21315;SDS011;10817;55.820;13.030;2023-12-04T11:36:30;20.13;;;12.05;;
21315;SDS011;10817;55.820;13.030;2023-12-04T11:38:57;20.98;;;10.98;;
21315;SDS011;10817;55.820;13.030;2023-12-04T11:41:26;22.55;;;11.20;;
21315;SDS011;10817;55.820;13.030;2023-12-04T11:43:54;22.25;;;11.23;;
21315;SDS011;10817;55.820;13.030;2023-12-04T11:46:24;24.02;;;12.38;;
21315;SDS011;10817;55.820;13.030;2023-12-04T11:48:51;21.27;;;11.68;;
21315;SDS011;10817;55.820;13.030;2023-12-04T11:54:16;23.70;;;11.68;;
21315;SDS011;10817;55.820;13.030;2023-12-04T11:59:46;24.42;;;11.48;;
21315;SDS011;10817;55.820;13.030;2023-12-04T12:02:15;22.20;;;11.27;;
21315;SDS011;10817;55.820;13.030;2023-12-04T12:04:43;20.70;;;12.07;;
21315;SDS011;10817;55.820;13.030;2023-12-04T12:07:10;18.23;;;10.93;;
21315;SDS011;10817;55.820;13.030;2023-12-04T12:09:38;19.50;;;11.32;;
21315;SDS011;10817;55.820;13.030;2023-12-04T12:12:05;22.13;;;11.88;;
21315;SDS011;10817;55.820;13.030;2023-12-04T12:14:32;19.45;;;11.40;;
21315;SDS011;10817;55.820;13.030;2023-12-04T12:16:59;20.40;;;11.73;;
21315;SDS011;10817;55.820;13.030;2023-12-04T12:19:28;23.23;;;11.77;;
21315;SDS011;10817;55.820;13.030;2023-12-04T12:21:55;23.77;;;13.05;;
21315;SDS011;10817;55.820;13.030;2023-12-04T12:24:22;23.10;;;11.82;;
21315;SDS011;10817;55.820;13.030;2023-12-04T12:26:49;22.02;;;11.75;;
21315;SDS011;10817;55.820;13.030;2023-12-04T12:29:17;24.30;;;12.52;;
21315;SDS011;10817;55.820;13.030;2023-12-04T12:31:43;24.55;;;12.30;;
21315;SDS011;10817;55.820;13.030;2023-12-04T12:34:11;23.23;;;11.82;;
21315;SDS011;10817;55.820;13.030;2023-12-04T12:36:39;22.35;;;12.55;;
21315;SDS011;10817;55.820;13.030;2023-12-04T12:39:07;22.48;;;12.30;;
21315;SDS011;10817;55.820;13.030;2023-12-04T12:41:34;20.38;;;11.27;;
21315;SDS011;10817;55.820;13.030;2023-12-04T12:44:00;25.58;;;12.85;;
21315;SDS011;10817;55.820;13.030;2023-12-04T12:46:28;22.55;;;11.90;;
21315;SDS011;10817;55.820;13.030;2023-12-04T12:48:55;25.10;;;11.82;;
21315;SDS011;10817;55.820;13.030;2023-12-04T12:51:23;27.90;;;12.52;;
21315;SDS011;10817;55.820;13.030;2023-12-04T12:53:51;22.45;;;12.13;;
21315;SDS011;10817;55.820;13.030;2023-12-04T12:56:17;24.15;;;11.85;;
21315;SDS011;10817;55.820;13.030;2023-12-04T12:58:44;21.58;;;11.77;;
21315;SDS011;10817;55.820;13.030;2023-12-04T13:01:11;23.35;;;11.70;;
21315;SDS011;10817;55.820;13.030;2023-12-04T13:03:39;21.65;;;11.55;;
21315;SDS011;10817;55.820;13.030;2023-12-04T13:06:06;23.48;;;12.18;;
21315;SDS011;10817;55.820;13.030;2023-12-04T13:08:33;21.05;;;10.90;;
21315;SDS011;10817;55.820;13.030;2023-12-04T13:11:01;21.40;;;11.77;;
21315;SDS011;10817;55.820;13.030;2023-12-04T13:13:29;23.60;;;11.80;;
21315;SDS011;10817;55.820;13.030;2023-12-04T13:15:57;21.75;;;11.80;;
21315;SDS011;10817;55.820;13.030;2023-12-04T13:18:23;24.38;;;11.52;;
21315;SDS011;10817;55.820;13.030;2023-12-04T13:20:50;22.55;;;11.77;;
21315;SDS011;10817;55.820;13.030;2023-12-04T13:23:17;19.98;;;11.18;;
21315;SDS011;10817;55.820;13.030;2023-12-04T13:25:44;22.13;;;10.95;;
21315;SDS011;10817;55.820;13.030;2023-12-04T13:28:12;23.58;;;11.48;;
21315;SDS011;10817;55.820;13.030;2023-12-04T13:30:39;20.05;;;10.25;;
21315;SDS011;10817;55.820;13.030;2023-12-04T13:33:07;20.80;;;11.38;;
21315;SDS011;10817;55.820;13.030;2023-12-04T13:35:33;24.17;;;11.63;;
21315;SDS011;10817;55.820;13.030;2023-12-04T13:38:00;24.00;;;12.15;;
21315;SDS011;10817;55.820;13.030;2023-12-04T13:40:27;22.45;;;11.68;;
21315;SDS011;10817;55.820;13.030;2023-12-04T13:42:57;21.48;;;11.57;;
21315;SDS011;10817;55.820;13.030;2023-12-04T13:45:43;27.65;;;12.13;;
21315;SDS011;10817;55.820;13.030;2023-12-04T13:48:09;22.15;;;11.43;;
21315;SDS011;10817;55.820;13.030;2023-12-04T13:50:38;26.63;;;11.68;;
21315;SDS011;10817;55.820;13.030;2023-12-04T13:53:04;23.90;;;11.80;;
21315;SDS011;10817;55.820;13.030;2023-12-04T13:55:33;22.75;;;11.85;;
21315;SDS011;10817;55.820;13.030;2023-12-04T13:58:12;24.10;;;11.85;;
21315;SDS011;10817;55.820;13.030;2023-12-04T14:01:04;18.80;;;10.95;;
21315;SDS011;10817;55.820;13.030;2023-12-04T14:03:38;24.85;;;12.15;;
21315;SDS011;10817;55.820;13.030;2023-12-04T14:06:06;24.95;;;12.55;;
21315;SDS011;10817;55.820;13.030;2023-12-04T14:08:33;22.02;;;11.23;;
21315;SDS011;10817;55.820;13.030;2023-12-04T14:11:00;23.13;;;11.55;;
21315;SDS011;10817;55.820;13.030;2023-12-04T14:13:27;20.88;;;11.65;;
21315;SDS011;10817;55.820;13.030;2023-12-04T14:15:54;25.70;;;11.88;;
21315;SDS011;10817;55.820;13.030;2023-12-04T14:18:23;25.27;;;11.02;;
21315;SDS011;10817;55.820;13.030;2023-12-04T14:20:50;23.30;;;12.23;;
21315;SDS011;10817;55.820;13.030;2023-12-04T14:23:17;23.83;;;10.88;;
21315;SDS011;10817;55.820;13.030;2023-12-04T14:25:45;18.25;;;11.70;;
21315;SDS011;10817;55.820;13.030;2023-12-04T14:28:13;21.85;;;11.52;;
21315;SDS011;10817;55.820;13.030;2023-12-04T14:30:40;24.20;;;12.05;;